sensor_id;sensor_type;location;lat;lon;timestamp;temperature;humidity
4435;DHT22;46552;52.150;8.428;2022-12-29T00:02:23;10.40;99.90
4435;DHT22;46552;52.150;8.428;2022-12-29T00:04:50;10.50;99.90
4435;DHT22;46552;52.150;8.428;2022-12-29T00:07:18;10.50;99.90
4435;DHT22;46552;52.150;8.428;2022-12-29T00:09:46;10.50;99.90
4435;DHT22;46552;52.150;8.428;2022-12-29T00:12:15;10.50;99.90
4435;DHT22;46552;52.150;8.428;2022-12-29T00:14:43;10.50;99.90
4435;DHT22;46552;52.150;8.428;2022-12-29T00:17:27;10.50;99.90
4435;DHT22;46552;52.150;8.428;2022-12-29T00:19:54;10.50;99.90
4435;DHT22;46552;52.150;8.428;2022-12-29T00:22:38;10.50;99.90
4435;DHT22;46552;52.150;8.428;2022-12-29T00:25:22;10.50;99.90
4435;DHT22;46552;52.150;8.428;2022-12-29T00:28:09;10.50;99.90
4435;DHT22;46552;52.150;8.428;2022-12-29T00:30:58;10.50;99.90
4435;DHT22;46552;52.150;8.428;2022-12-29T00:33:43;10.50;99.90
4435;DHT22;46552;52.150;8.428;2022-12-29T00:36:32;10.50;99.90
4435;DHT22;46552;52.150;8.428;2022-12-29T00:39:02;10.50;99.90
4435;DHT22;46552;52.150;8.428;2022-12-29T00:41:43;10.50;99.90
4435;DHT22;46552;52.150;8.428;2022-12-29T00:44:41;10.50;99.90
4435;DHT22;46552;52.150;8.428;2022-12-29T00:47:08;10.50;99.90
4435;DHT22;46552;52.150;8.428;2022-12-29T00:49:35;10.50;99.90
4435;DHT22;46552;52.150;8.428;2022-12-29T00:52:03;10.50;99.90
4435;DHT22;46552;52.150;8.428;2022-12-29T00:54:32;10.50;99.90
4435;DHT22;46552;52.150;8.428;2022-12-29T00:57:01;10.50;99.90
4435;DHT22;46552;52.150;8.428;2022-12-29T00:59:28;10.50;99.90
4435;DHT22;46552;52.150;8.428;2022-12-29T01:01:57;10.50;99.90
4435;DHT22;46552;52.150;8.428;2022-12-29T01:04:26;10.50;99.90
4435;DHT22;46552;52.150;8.428;2022-12-29T01:06:53;10.50;99.90
4435;DHT22;46552;52.150;8.428;2022-12-29T01:09:21;10.50;99.90
4435;DHT22;46552;52.150;8.428;2022-12-29T01:12:07;10.50;99.90
4435;DHT22;46552;52.150;8.428;2022-12-29T01:14:34;10.50;99.90
4435;DHT22;46552;52.150;8.428;2022-12-29T01:17:03;10.50;99.90
4435;DHT22;46552;52.150;8.428;2022-12-29T01:19:32;10.50;99.90
4435;DHT22;46552;52.150;8.428;2022-12-29T01:22:00;10.50;99.90
4435;DHT22;46552;52.150;8.428;2022-12-29T01:24:27;10.50;99.90
4435;DHT22;46552;52.150;8.428;2022-12-29T01:26:56;10.50;99.90
4435;DHT22;46552;52.150;8.428;2022-12-29T01:29:25;10.50;99.90
4435;DHT22;46552;52.150;8.428;2022-12-29T01:31:52;10.50;99.90
4435;DHT22;46552;52.150;8.428;2022-12-29T01:34:22;10.50;99.90
4435;DHT22;46552;52.150;8.428;2022-12-29T01:36:49;10.50;99.90
4435;DHT22;46552;52.150;8.428;2022-12-29T01:39:16;10.50;99.90
4435;DHT22;46552;52.150;8.428;2022-12-29T01:41:43;10.50;99.90
4435;DHT22;46552;52.150;8.428;2022-12-29T01:44:45;10.40;99.90
4435;DHT22;46552;52.150;8.428;2022-12-29T01:47:15;10.40;99.90
4435;DHT22;46552;52.150;8.428;2022-12-29T01:49:47;10.40;99.90
4435;DHT22;46552;52.150;8.428;2022-12-29T01:52:16;10.40;99.90
4435;DHT22;46552;52.150;8.428;2022-12-29T01:54:48;10.40;99.90
4435;DHT22;46552;52.150;8.428;2022-12-29T01:57:21;10.30;99.90
4435;DHT22;46552;52.150;8.428;2022-12-29T01:59:53;10.30;99.90
4435;DHT22;46552;52.150;8.428;2022-12-29T02:02:22;10.30;99.90
4435;DHT22;46552;52.150;8.428;2022-12-29T02:04:52;10.30;99.90
4435;DHT22;46552;52.150;8.428;2022-12-29T02:07:23;10.30;99.90
4435;DHT22;46552;52.150;8.428;2022-12-29T02:09:53;10.30;99.90
4435;DHT22;46552;52.150;8.428;2022-12-29T02:12:21;10.30;99.90
4435;DHT22;46552;52.150;8.428;2022-12-29T02:14:55;10.30;99.90
4435;DHT22;46552;52.150;8.428;2022-12-29T02:17:31;10.30;99.90
4435;DHT22;46552;52.150;8.428;2022-12-29T02:20:25;10.30;99.90
4435;DHT22;46552;52.150;8.428;2022-12-29T02:23:13;10.30;99.90
4435;DHT22;46552;52.150;8.428;2022-12-29T02:26:10;10.30;99.90
4435;DHT22;46552;52.150;8.428;2022-12-29T02:29:13;10.30;99.90
4435;DHT22;46552;52.150;8.428;2022-12-29T02:31:49;10.20;99.90
4435;DHT22;46552;52.150;8.428;2022-12-29T02:34:25;10.20;99.90
4435;DHT22;46552;52.150;8.428;2022-12-29T02:37:00;10.20;99.90
4435;DHT22;46552;52.150;8.428;2022-12-29T02:39:36;10.20;99.90
4435;DHT22;46552;52.150;8.428;2022-12-29T02:42:10;10.20;99.90
4435;DHT22;46552;52.150;8.428;2022-12-29T02:44:50;10.20;99.90
4435;DHT22;46552;52.150;8.428;2022-12-29T02:47:26;10.30;99.90
4435;DHT22;46552;52.150;8.428;2022-12-29T02:49:59;10.30;99.90
4435;DHT22;46552;52.150;8.428;2022-12-29T02:52:31;10.30;99.90
4435;DHT22;46552;52.150;8.428;2022-12-29T02:55:00;10.40;99.90
4435;DHT22;46552;52.150;8.428;2022-12-29T02:57:32;10.50;99.90
4435;DHT22;46552;52.150;8.428;2022-12-29T03:00:03;10.50;99.90
4435;DHT22;46552;52.150;8.428;2022-12-29T03:03:16;10.50;99.90
4435;DHT22;46552;52.150;8.428;2022-12-29T03:06:00;10.50;99.90
4435;DHT22;46552;52.150;8.428;2022-12-29T03:08:35;10.50;99.90
4435;DHT22;46552;52.150;8.428;2022-12-29T03:11:11;10.60;99.90
4435;DHT22;46552;52.150;8.428;2022-12-29T03:13:56;10.60;99.90
4435;DHT22;46552;52.150;8.428;2022-12-29T03:16:44;10.60;99.90
4435;DHT22;46552;52.150;8.428;2022-12-29T03:19:17;10.70;99.90
4435;DHT22;46552;52.150;8.428;2022-12-29T03:21:48;10.70;99.90
4435;DHT22;46552;52.150;8.428;2022-12-29T03:24:41;10.80;99.90
4435;DHT22;46552;52.150;8.428;2022-12-29T03:27:12;10.80;99.90
4435;DHT22;46552;52.150;8.428;2022-12-29T03:29:46;10.80;99.90
4435;DHT22;46552;52.150;8.428;2022-12-29T03:32:19;10.90;99.90
4435;DHT22;46552;52.150;8.428;2022-12-29T03:34:49;10.90;99.90
4435;DHT22;46552;52.150;8.428;2022-12-29T03:37:20;11.00;99.90
4435;DHT22;46552;52.150;8.428;2022-12-29T03:39:50;11.00;99.90
4435;DHT22;46552;52.150;8.428;2022-12-29T03:42:20;11.00;99.90
4435;DHT22;46552;52.150;8.428;2022-12-29T03:44:53;11.10;99.90
4435;DHT22;46552;52.150;8.428;2022-12-29T03:47:22;11.10;99.90
4435;DHT22;46552;52.150;8.428;2022-12-29T03:49:51;11.10;99.90
4435;DHT22;46552;52.150;8.428;2022-12-29T03:52:19;11.10;99.90
4435;DHT22;46552;52.150;8.428;2022-12-29T03:54:46;11.10;99.90
4435;DHT22;46552;52.150;8.428;2022-12-29T03:57:13;11.20;99.90
4435;DHT22;46552;52.150;8.428;2022-12-29T03:59:40;11.20;99.90
4435;DHT22;46552;52.150;8.428;2022-12-29T04:02:08;11.20;99.90
4435;DHT22;46552;52.150;8.428;2022-12-29T04:04:35;11.20;99.90
4435;DHT22;46552;52.150;8.428;2022-12-29T04:07:03;11.20;99.90
4435;DHT22;46552;52.150;8.428;2022-12-29T04:09:30;11.20;99.90
4435;DHT22;46552;52.150;8.428;2022-12-29T04:11:57;11.20;99.90
4435;DHT22;46552;52.150;8.428;2022-12-29T04:14:25;11.30;99.90
4435;DHT22;46552;52.150;8.428;2022-12-29T04:16:52;11.30;99.90
4435;DHT22;46552;52.150;8.428;2022-12-29T04:19:19;11.30;99.90
4435;DHT22;46552;52.150;8.428;2022-12-29T04:21:46;11.30;99.90
4435;DHT22;46552;52.150;8.428;2022-12-29T04:24:15;11.30;99.90
4435;DHT22;46552;52.150;8.428;2022-12-29T04:26:42;11.40;99.90
4435;DHT22;46552;52.150;8.428;2022-12-29T04:29:09;11.40;99.90
4435;DHT22;46552;52.150;8.428;2022-12-29T04:31:36;11.40;99.90
4435;DHT22;46552;52.150;8.428;2022-12-29T04:34:03;11.40;99.90
4435;DHT22;46552;52.150;8.428;2022-12-29T04:36:30;11.40;99.90
4435;DHT22;46552;52.150;8.428;2022-12-29T04:38:58;11.30;99.90
4435;DHT22;46552;52.150;8.428;2022-12-29T04:41:27;11.30;99.90
4435;DHT22;46552;52.150;8.428;2022-12-29T04:43:54;11.30;99.90
4435;DHT22;46552;52.150;8.428;2022-12-29T04:46:22;11.30;99.90
4435;DHT22;46552;52.150;8.428;2022-12-29T04:48:49;11.30;99.90
4435;DHT22;46552;52.150;8.428;2022-12-29T04:51:16;11.30;99.90
4435;DHT22;46552;52.150;8.428;2022-12-29T04:53:43;11.30;99.90
4435;DHT22;46552;52.150;8.428;2022-12-29T04:56:11;11.10;99.90
4435;DHT22;46552;52.150;8.428;2022-12-29T04:58:40;11.20;99.90
4435;DHT22;46552;52.150;8.428;2022-12-29T05:01:08;11.10;99.90
4435;DHT22;46552;52.150;8.428;2022-12-29T05:03:35;11.00;99.90
4435;DHT22;46552;52.150;8.428;2022-12-29T05:06:03;10.90;99.90
4435;DHT22;46552;52.150;8.428;2022-12-29T05:08:30;10.90;99.90
4435;DHT22;46552;52.150;8.428;2022-12-29T05:10:58;10.80;99.90
4435;DHT22;46552;52.150;8.428;2022-12-29T05:13:25;10.80;99.90
4435;DHT22;46552;52.150;8.428;2022-12-29T05:15:54;10.80;99.90
4435;DHT22;46552;52.150;8.428;2022-12-29T05:18:21;10.80;99.90
4435;DHT22;46552;52.150;8.428;2022-12-29T05:20:48;10.80;99.90
4435;DHT22;46552;52.150;8.428;2022-12-29T05:23:15;10.70;99.90
4435;DHT22;46552;52.150;8.428;2022-12-29T05:25:43;10.70;99.90
4435;DHT22;46552;52.150;8.428;2022-12-29T05:28:11;10.70;99.90
4435;DHT22;46552;52.150;8.428;2022-12-29T05:30:39;10.70;99.90
4435;DHT22;46552;52.150;8.428;2022-12-29T05:33:07;10.70;99.90
4435;DHT22;46552;52.150;8.428;2022-12-29T05:35:37;10.70;99.90
4435;DHT22;46552;52.150;8.428;2022-12-29T05:38:04;10.70;99.90
4435;DHT22;46552;52.150;8.428;2022-12-29T05:40:31;10.80;99.90
4435;DHT22;46552;52.150;8.428;2022-12-29T05:42:58;10.80;99.90
4435;DHT22;46552;52.150;8.428;2022-12-29T05:45:25;10.80;99.90
4435;DHT22;46552;52.150;8.428;2022-12-29T05:47:52;10.80;99.90
4435;DHT22;46552;52.150;8.428;2022-12-29T05:50:21;10.80;99.90
4435;DHT22;46552;52.150;8.428;2022-12-29T05:52:48;10.80;99.90
4435;DHT22;46552;52.150;8.428;2022-12-29T05:55:16;10.90;99.90
4435;DHT22;46552;52.150;8.428;2022-12-29T05:57:43;10.90;99.90
4435;DHT22;46552;52.150;8.428;2022-12-29T06:00:11;10.90;99.90
4435;DHT22;46552;52.150;8.428;2022-12-29T06:02:40;11.00;99.90
4435;DHT22;46552;52.150;8.428;2022-12-29T06:05:08;11.00;99.90
4435;DHT22;46552;52.150;8.428;2022-12-29T06:07:37;11.00;99.90
4435;DHT22;46552;52.150;8.428;2022-12-29T06:10:05;10.60;99.90
4435;DHT22;46552;52.150;8.428;2022-12-29T06:12:32;10.30;99.90
4435;DHT22;46552;52.150;8.428;2022-12-29T06:15:00;10.20;99.90
4435;DHT22;46552;52.150;8.428;2022-12-29T06:17:28;10.10;99.90
4435;DHT22;46552;52.150;8.428;2022-12-29T06:19:55;10.00;99.90
4435;DHT22;46552;52.150;8.428;2022-12-29T06:22:22;10.00;99.90
4435;DHT22;46552;52.150;8.428;2022-12-29T06:24:51;10.00;99.90
4435;DHT22;46552;52.150;8.428;2022-12-29T06:27:18;10.00;99.90
4435;DHT22;46552;52.150;8.428;2022-12-29T06:29:45;9.90;99.90
4435;DHT22;46552;52.150;8.428;2022-12-29T06:32:12;9.90;99.90
4435;DHT22;46552;52.150;8.428;2022-12-29T06:34:40;9.90;99.90
4435;DHT22;46552;52.150;8.428;2022-12-29T06:37:07;9.90;99.90
4435;DHT22;46552;52.150;8.428;2022-12-29T06:39:34;9.90;99.90
4435;DHT22;46552;52.150;8.428;2022-12-29T06:42:04;9.90;99.90
4435;DHT22;46552;52.150;8.428;2022-12-29T06:44:31;9.80;99.90
4435;DHT22;46552;52.150;8.428;2022-12-29T06:46:58;9.80;99.90
4435;DHT22;46552;52.150;8.428;2022-12-29T06:49:25;9.80;99.90
4435;DHT22;46552;52.150;8.428;2022-12-29T06:51:53;9.80;99.90
4435;DHT22;46552;52.150;8.428;2022-12-29T06:54:20;9.70;99.90
4435;DHT22;46552;52.150;8.428;2022-12-29T06:56:47;9.70;99.90
4435;DHT22;46552;52.150;8.428;2022-12-29T06:59:17;9.70;99.90
4435;DHT22;46552;52.150;8.428;2022-12-29T07:01:44;9.70;99.90
4435;DHT22;46552;52.150;8.428;2022-12-29T07:04:11;9.70;99.90
4435;DHT22;46552;52.150;8.428;2022-12-29T07:06:38;9.70;99.90
4435;DHT22;46552;52.150;8.428;2022-12-29T07:09:06;9.70;99.90
4435;DHT22;46552;52.150;8.428;2022-12-29T07:11:33;9.70;99.90
4435;DHT22;46552;52.150;8.428;2022-12-29T07:14:00;9.70;99.90
4435;DHT22;46552;52.150;8.428;2022-12-29T07:16:29;9.70;99.90
4435;DHT22;46552;52.150;8.428;2022-12-29T07:18:56;9.70;99.90
4435;DHT22;46552;52.150;8.428;2022-12-29T07:21:25;9.70;99.90
4435;DHT22;46552;52.150;8.428;2022-12-29T07:23:53;9.70;99.90
4435;DHT22;46552;52.150;8.428;2022-12-29T07:26:21;9.70;99.90
4435;DHT22;46552;52.150;8.428;2022-12-29T07:28:48;9.70;99.90
4435;DHT22;46552;52.150;8.428;2022-12-29T07:31:18;9.70;99.90
4435;DHT22;46552;52.150;8.428;2022-12-29T07:33:48;9.70;99.90
4435;DHT22;46552;52.150;8.428;2022-12-29T07:36:15;9.70;99.90
4435;DHT22;46552;52.150;8.428;2022-12-29T07:38:43;9.70;99.90
4435;DHT22;46552;52.150;8.428;2022-12-29T07:41:10;9.70;99.90
4435;DHT22;46552;52.150;8.428;2022-12-29T07:43:37;9.70;99.90
4435;DHT22;46552;52.150;8.428;2022-12-29T07:46:04;9.70;99.90
4435;DHT22;46552;52.150;8.428;2022-12-29T07:48:31;9.70;99.90
4435;DHT22;46552;52.150;8.428;2022-12-29T07:51:01;9.70;99.90
4435;DHT22;46552;52.150;8.428;2022-12-29T07:53:28;9.70;99.90
4435;DHT22;46552;52.150;8.428;2022-12-29T07:55:56;9.80;99.90
4435;DHT22;46552;52.150;8.428;2022-12-29T07:58:23;9.80;99.90
4435;DHT22;46552;52.150;8.428;2022-12-29T08:00:53;9.70;99.90
4435;DHT22;46552;52.150;8.428;2022-12-29T08:03:20;9.70;99.90
4435;DHT22;46552;52.150;8.428;2022-12-29T08:05:47;9.70;99.90
4435;DHT22;46552;52.150;8.428;2022-12-29T08:08:16;9.70;99.90
4435;DHT22;46552;52.150;8.428;2022-12-29T08:10:45;9.70;99.90
4435;DHT22;46552;52.150;8.428;2022-12-29T08:13:13;9.70;99.90
4435;DHT22;46552;52.150;8.428;2022-12-29T08:15:40;9.70;99.90
4435;DHT22;46552;52.150;8.428;2022-12-29T08:18:07;9.80;99.90
4435;DHT22;46552;52.150;8.428;2022-12-29T08:20:34;9.70;99.90
4435;DHT22;46552;52.150;8.428;2022-12-29T08:23:03;9.80;99.90
4435;DHT22;46552;52.150;8.428;2022-12-29T08:25:31;9.80;99.90
4435;DHT22;46552;52.150;8.428;2022-12-29T08:27:59;9.80;99.90
4435;DHT22;46552;52.150;8.428;2022-12-29T08:30:26;9.80;99.90
4435;DHT22;46552;52.150;8.428;2022-12-29T08:32:53;9.80;99.90
4435;DHT22;46552;52.150;8.428;2022-12-29T08:35:21;9.90;99.90
4435;DHT22;46552;52.150;8.428;2022-12-29T08:37:48;9.90;99.90
4435;DHT22;46552;52.150;8.428;2022-12-29T08:40:15;9.90;99.90
4435;DHT22;46552;52.150;8.428;2022-12-29T08:42:43;9.90;99.90
4435;DHT22;46552;52.150;8.428;2022-12-29T08:45:11;9.90;99.90
4435;DHT22;46552;52.150;8.428;2022-12-29T08:47:38;9.90;99.90
4435;DHT22;46552;52.150;8.428;2022-12-29T08:50:06;10.00;99.90
4435;DHT22;46552;52.150;8.428;2022-12-29T08:52:34;10.00;99.90
4435;DHT22;46552;52.150;8.428;2022-12-29T08:55:01;10.10;99.90
4435;DHT22;46552;52.150;8.428;2022-12-29T08:57:28;10.10;99.90
4435;DHT22;46552;52.150;8.428;2022-12-29T08:59:56;10.10;99.90
4435;DHT22;46552;52.150;8.428;2022-12-29T09:02:24;10.10;99.90
4435;DHT22;46552;52.150;8.428;2022-12-29T09:04:51;10.10;99.90
4435;DHT22;46552;52.150;8.428;2022-12-29T09:07:18;10.20;99.90
4435;DHT22;46552;52.150;8.428;2022-12-29T09:09:46;11.00;99.90
4435;DHT22;46552;52.150;8.428;2022-12-29T09:12:13;12.20;99.90
4435;DHT22;46552;52.150;8.428;2022-12-29T09:14:41;13.50;99.90
4435;DHT22;46552;52.150;8.428;2022-12-29T09:17:11;14.70;99.90
4435;DHT22;46552;52.150;8.428;2022-12-29T09:19:55;15.80;99.90
4435;DHT22;46552;52.150;8.428;2022-12-29T09:22:23;17.00;99.90
4435;DHT22;46552;52.150;8.428;2022-12-29T09:24:50;17.00;99.90
4435;DHT22;46552;52.150;8.428;2022-12-29T09:27:17;16.70;99.90
4435;DHT22;46552;52.150;8.428;2022-12-29T09:29:44;16.00;99.90
4435;DHT22;46552;52.150;8.428;2022-12-29T09:32:12;15.20;99.90
4435;DHT22;46552;52.150;8.428;2022-12-29T09:34:40;14.40;99.90
4435;DHT22;46552;52.150;8.428;2022-12-29T09:37:07;13.70;99.90
4435;DHT22;46552;52.150;8.428;2022-12-29T09:39:34;13.10;99.90
4435;DHT22;46552;52.150;8.428;2022-12-29T09:42:07;12.70;99.90
4435;DHT22;46552;52.150;8.428;2022-12-29T09:44:49;12.50;99.90
4435;DHT22;46552;52.150;8.428;2022-12-29T09:47:20;12.80;99.90
4435;DHT22;46552;52.150;8.428;2022-12-29T09:49:50;13.50;99.90
4435;DHT22;46552;52.150;8.428;2022-12-29T09:52:22;14.80;99.90
4435;DHT22;46552;52.150;8.428;2022-12-29T09:54:54;16.10;99.90
4435;DHT22;46552;52.150;8.428;2022-12-29T09:57:25;17.20;97.50
4435;DHT22;46552;52.150;8.428;2022-12-29T09:59:57;17.60;95.90
4435;DHT22;46552;52.150;8.428;2022-12-29T10:02:36;17.20;96.30
4435;DHT22;46552;52.150;8.428;2022-12-29T10:05:08;16.00;95.30
4435;DHT22;46552;52.150;8.428;2022-12-29T10:07:45;15.40;97.10
4435;DHT22;46552;52.150;8.428;2022-12-29T10:10:23;15.20;97.20
4435;DHT22;46552;52.150;8.428;2022-12-29T10:13:00;16.10;97.00
4435;DHT22;46552;52.150;8.428;2022-12-29T10:15:46;17.00;95.80
4435;DHT22;46552;52.150;8.428;2022-12-29T10:21:17;19.10;92.30
4435;DHT22;46552;52.150;8.428;2022-12-29T10:23:51;19.20;90.20
4435;DHT22;46552;52.150;8.428;2022-12-29T10:26:19;19.60;89.00
4435;DHT22;46552;52.150;8.428;2022-12-29T10:28:50;19.00;90.10
4435;DHT22;46552;52.150;8.428;2022-12-29T10:31:21;17.70;90.20
4435;DHT22;46552;52.150;8.428;2022-12-29T10:34:02;16.90;91.80
4435;DHT22;46552;52.150;8.428;2022-12-29T10:36:34;15.80;93.40
4435;DHT22;46552;52.150;8.428;2022-12-29T10:39:10;15.00;95.20
4435;DHT22;46552;52.150;8.428;2022-12-29T10:41:46;14.40;97.00
4435;DHT22;46552;52.150;8.428;2022-12-29T10:44:16;14.00;98.70
4435;DHT22;46552;52.150;8.428;2022-12-29T10:46:51;13.70;99.90
4435;DHT22;46552;52.150;8.428;2022-12-29T10:49:24;13.60;99.90
4435;DHT22;46552;52.150;8.428;2022-12-29T10:51:56;13.40;99.90
4435;DHT22;46552;52.150;8.428;2022-12-29T10:54:27;13.10;99.90
4435;DHT22;46552;52.150;8.428;2022-12-29T10:57:00;12.70;99.90
4435;DHT22;46552;52.150;8.428;2022-12-29T10:59:29;12.70;99.90
4435;DHT22;46552;52.150;8.428;2022-12-29T11:02:02;12.50;99.90
4435;DHT22;46552;52.150;8.428;2022-12-29T11:04:50;12.30;99.90
4435;DHT22;46552;52.150;8.428;2022-12-29T11:07:22;12.00;99.90
4435;DHT22;46552;52.150;8.428;2022-12-29T11:12:23;12.00;99.90
4435;DHT22;46552;52.150;8.428;2022-12-29T11:15:07;12.00;99.90
4435;DHT22;46552;52.150;8.428;2022-12-29T11:17:43;11.90;99.90
4435;DHT22;46552;52.150;8.428;2022-12-29T11:20:33;11.90;99.90
4435;DHT22;46552;52.150;8.428;2022-12-29T11:23:02;11.80;99.90
4435;DHT22;46552;52.150;8.428;2022-12-29T11:25:30;11.80;99.90
4435;DHT22;46552;52.150;8.428;2022-12-29T11:27:59;11.70;99.90
4435;DHT22;46552;52.150;8.428;2022-12-29T11:30:29;11.70;99.90
4435;DHT22;46552;52.150;8.428;2022-12-29T11:32:57;11.70;99.90
4435;DHT22;46552;52.150;8.428;2022-12-29T11:35:34;11.70;99.90
4435;DHT22;46552;52.150;8.428;2022-12-29T11:38:02;11.70;99.90
4435;DHT22;46552;52.150;8.428;2022-12-29T11:40:31;11.70;99.90
4435;DHT22;46552;52.150;8.428;2022-12-29T11:43:05;11.70;99.90
4435;DHT22;46552;52.150;8.428;2022-12-29T11:45:34;11.70;99.90
4435;DHT22;46552;52.150;8.428;2022-12-29T11:48:07;11.70;99.90
4435;DHT22;46552;52.150;8.428;2022-12-29T11:50:40;11.70;99.90
4435;DHT22;46552;52.150;8.428;2022-12-29T11:53:15;11.70;99.90
4435;DHT22;46552;52.150;8.428;2022-12-29T11:55:51;11.70;99.90
4435;DHT22;46552;52.150;8.428;2022-12-29T11:58:20;11.60;99.90
4435;DHT22;46552;52.150;8.428;2022-12-29T12:00:48;11.60;99.90
4435;DHT22;46552;52.150;8.428;2022-12-29T12:03:18;11.70;99.90
4435;DHT22;46552;52.150;8.428;2022-12-29T12:05:49;11.60;99.90
4435;DHT22;46552;52.150;8.428;2022-12-29T12:08:23;11.60;99.90
4435;DHT22;46552;52.150;8.428;2022-12-29T12:10:57;11.60;99.90
4435;DHT22;46552;52.150;8.428;2022-12-29T12:13:30;11.50;99.90
4435;DHT22;46552;52.150;8.428;2022-12-29T12:16:04;11.50;99.90
4435;DHT22;46552;52.150;8.428;2022-12-29T12:18:39;11.60;99.90
4435;DHT22;46552;52.150;8.428;2022-12-29T12:21:18;11.50;99.90
4435;DHT22;46552;52.150;8.428;2022-12-29T12:24:09;11.50;99.90
4435;DHT22;46552;52.150;8.428;2022-12-29T12:26:48;11.50;99.90
4435;DHT22;46552;52.150;8.428;2022-12-29T12:29:24;11.50;99.90
4435;DHT22;46552;52.150;8.428;2022-12-29T12:31:55;11.50;99.90
4435;DHT22;46552;52.150;8.428;2022-12-29T12:34:28;11.50;99.90
4435;DHT22;46552;52.150;8.428;2022-12-29T12:40:15;11.40;99.90
4435;DHT22;46552;52.150;8.428;2022-12-29T12:42:54;11.40;99.90
4435;DHT22;46552;52.150;8.428;2022-12-29T12:45:34;11.40;99.90
4435;DHT22;46552;52.150;8.428;2022-12-29T12:48:18;11.30;99.90
4435;DHT22;46552;52.150;8.428;2022-12-29T12:50:53;11.40;99.90
4435;DHT22;46552;52.150;8.428;2022-12-29T12:53:44;11.40;99.90
4435;DHT22;46552;52.150;8.428;2022-12-29T12:56:35;11.30;99.90
4435;DHT22;46552;52.150;8.428;2022-12-29T12:59:15;11.30;99.90
4435;DHT22;46552;52.150;8.428;2022-12-29T13:01:50;11.30;99.90
4435;DHT22;46552;52.150;8.428;2022-12-29T13:04:35;11.30;99.90
4435;DHT22;46552;52.150;8.428;2022-12-29T13:07:12;11.30;99.90
4435;DHT22;46552;52.150;8.428;2022-12-29T13:10:05;11.30;99.90
4435;DHT22;46552;52.150;8.428;2022-12-29T13:12:46;11.30;99.90
4435;DHT22;46552;52.150;8.428;2022-12-29T13:15:23;11.30;99.90
4435;DHT22;46552;52.150;8.428;2022-12-29T13:17:58;11.30;99.90
4435;DHT22;46552;52.150;8.428;2022-12-29T13:20:33;11.30;99.90
4435;DHT22;46552;52.150;8.428;2022-12-29T13:23:08;11.30;99.90
4435;DHT22;46552;52.150;8.428;2022-12-29T13:25:44;11.30;99.90
4435;DHT22;46552;52.150;8.428;2022-12-29T13:28:21;11.40;99.90
4435;DHT22;46552;52.150;8.428;2022-12-29T13:30:59;11.30;99.90
4435;DHT22;46552;52.150;8.428;2022-12-29T13:33:37;11.30;99.90
4435;DHT22;46552;52.150;8.428;2022-12-29T13:36:13;11.30;99.90
4435;DHT22;46552;52.150;8.428;2022-12-29T13:38:48;11.30;99.90
4435;DHT22;46552;52.150;8.428;2022-12-29T13:41:31;11.30;99.90
4435;DHT22;46552;52.150;8.428;2022-12-29T13:44:01;11.30;99.90
4435;DHT22;46552;52.150;8.428;2022-12-29T13:46:33;11.30;99.90
4435;DHT22;46552;52.150;8.428;2022-12-29T13:49:06;11.30;99.90
4435;DHT22;46552;52.150;8.428;2022-12-29T13:51:34;11.30;99.90
4435;DHT22;46552;52.150;8.428;2022-12-29T13:54:12;11.30;99.90
4435;DHT22;46552;52.150;8.428;2022-12-29T13:56:46;11.30;99.90
4435;DHT22;46552;52.150;8.428;2022-12-29T13:59:20;11.30;99.90
4435;DHT22;46552;52.150;8.428;2022-12-29T14:01:55;11.30;99.90
4435;DHT22;46552;52.150;8.428;2022-12-29T14:04:27;11.30;99.90
4435;DHT22;46552;52.150;8.428;2022-12-29T14:07:01;11.20;99.90
4435;DHT22;46552;52.150;8.428;2022-12-29T14:09:45;11.20;99.90
4435;DHT22;46552;52.150;8.428;2022-12-29T14:12:26;11.20;99.90
4435;DHT22;46552;52.150;8.428;2022-12-29T14:15:21;11.20;99.90
4435;DHT22;46552;52.150;8.428;2022-12-29T14:18:09;11.20;99.90
4435;DHT22;46552;52.150;8.428;2022-12-29T14:20:38;11.30;99.90
4435;DHT22;46552;52.150;8.428;2022-12-29T14:23:17;11.20;99.90
4435;DHT22;46552;52.150;8.428;2022-12-29T14:26:12;11.20;99.90
4435;DHT22;46552;52.150;8.428;2022-12-29T14:28:43;11.20;99.90
4435;DHT22;46552;52.150;8.428;2022-12-29T14:31:33;11.10;99.90
4435;DHT22;46552;52.150;8.428;2022-12-29T14:36:59;11.10;99.90
4435;DHT22;46552;52.150;8.428;2022-12-29T14:39:32;11.10;99.90
4435;DHT22;46552;52.150;8.428;2022-12-29T14:42:00;11.00;99.90
4435;DHT22;46552;52.150;8.428;2022-12-29T14:44:29;11.00;99.90
4435;DHT22;46552;52.150;8.428;2022-12-29T14:46:59;11.00;99.90
4435;DHT22;46552;52.150;8.428;2022-12-29T14:49:29;11.00;99.90
4435;DHT22;46552;52.150;8.428;2022-12-29T14:52:06;11.00;99.90
4435;DHT22;46552;52.150;8.428;2022-12-29T14:54:54;11.00;99.90
4435;DHT22;46552;52.150;8.428;2022-12-29T14:57:34;10.90;99.90
4435;DHT22;46552;52.150;8.428;2022-12-29T15:00:23;10.90;99.90
4435;DHT22;46552;52.150;8.428;2022-12-29T15:03:01;10.90;99.90
4435;DHT22;46552;52.150;8.428;2022-12-29T15:05:36;10.80;99.90
4435;DHT22;46552;52.150;8.428;2022-12-29T15:08:05;10.80;99.90
4435;DHT22;46552;52.150;8.428;2022-12-29T15:10:38;10.80;99.90
4435;DHT22;46552;52.150;8.428;2022-12-29T15:13:15;10.80;99.90
4435;DHT22;46552;52.150;8.428;2022-12-29T15:15:45;10.80;99.90
4435;DHT22;46552;52.150;8.428;2022-12-29T15:18:15;10.80;99.90
4435;DHT22;46552;52.150;8.428;2022-12-29T15:20:50;10.80;99.90
4435;DHT22;46552;52.150;8.428;2022-12-29T15:23:18;10.70;99.90
4435;DHT22;46552;52.150;8.428;2022-12-29T15:25:47;10.70;99.90
4435;DHT22;46552;52.150;8.428;2022-12-29T15:28:17;10.70;99.90
4435;DHT22;46552;52.150;8.428;2022-12-29T15:30:55;10.60;99.90
4435;DHT22;46552;52.150;8.428;2022-12-29T15:33:26;10.60;99.90
4435;DHT22;46552;52.150;8.428;2022-12-29T15:35:54;10.60;99.90
4435;DHT22;46552;52.150;8.428;2022-12-29T15:38:27;10.60;99.90
4435;DHT22;46552;52.150;8.428;2022-12-29T15:40:57;10.60;99.90
4435;DHT22;46552;52.150;8.428;2022-12-29T15:43:42;10.60;99.90
4435;DHT22;46552;52.150;8.428;2022-12-29T15:46:13;10.60;99.90
4435;DHT22;46552;52.150;8.428;2022-12-29T15:48:40;10.50;99.90
4435;DHT22;46552;52.150;8.428;2022-12-29T15:51:17;10.60;99.90
4435;DHT22;46552;52.150;8.428;2022-12-29T15:53:47;10.60;99.90
4435;DHT22;46552;52.150;8.428;2022-12-29T15:56:15;10.60;99.90
4435;DHT22;46552;52.150;8.428;2022-12-29T15:58:44;10.60;99.90
4435;DHT22;46552;52.150;8.428;2022-12-29T16:01:23;10.60;99.90
4435;DHT22;46552;52.150;8.428;2022-12-29T16:03:53;10.60;99.90
4435;DHT22;46552;52.150;8.428;2022-12-29T16:06:30;10.60;99.90
4435;DHT22;46552;52.150;8.428;2022-12-29T16:08:59;10.60;99.90
4435;DHT22;46552;52.150;8.428;2022-12-29T16:11:31;10.60;99.90
4435;DHT22;46552;52.150;8.428;2022-12-29T16:14:00;10.60;99.90
4435;DHT22;46552;52.150;8.428;2022-12-29T16:16:32;10.60;99.90
4435;DHT22;46552;52.150;8.428;2022-12-29T16:19:06;10.60;99.90
4435;DHT22;46552;52.150;8.428;2022-12-29T16:21:36;10.60;99.90
4435;DHT22;46552;52.150;8.428;2022-12-29T16:24:06;10.60;99.90
4435;DHT22;46552;52.150;8.428;2022-12-29T16:26:35;10.50;99.90
4435;DHT22;46552;52.150;8.428;2022-12-29T16:29:06;10.40;99.90
4435;DHT22;46552;52.150;8.428;2022-12-29T16:31:36;10.40;99.90